»·PEaware :: VRD945 KPDX-KBOI

VRD945 :: KPDX-KBOI

FLIGHT INFORMATION

Flight Status: Arrived
Operator:
Virgin America
More flights by this operator :: More flights under this callsign
Pilot: Ben L. (6391)
Aircraft: AIRBUS A320
(A320)
More flights by this aircraft type
Origin: KPDX Portland Intl
United States
Destination: KBOI Boise Air Terminal/Gowen
United States
More flights between these airports :: More routes between these airports
Route: WHAMMY4 IMB HOSTS PARMO3
File this flight plan on PilotEdge
Remarks:
Altitude:
(Current/Filed)
31,000ft
Speed:
(Current/Filed)
450kts
Departed: 24-Feb-18 10:19 AM
Arrived: 24-Feb-18 11:09 AM
Distance/Time
Traveled:
298nm/0:50
Distance/Time
To Go:
Arrived

Flight Plot

Page will automatically refresh every two minutes.

Flight plan parsing failed; only flown route is shown


Map Options




Map Legend


Flown Route
Filed Route
Departure Airport
Arrival Airport
Navaid (VOR, NDB)
Fix

Horizontal Profiles

Position Reports

Time Latitude Longitude Heading Altitude Ground
Speed
24-Feb-18 10:08 45.589012 -122.595330 207 38ft 0kts
24-Feb-18 10:09 45.589012 -122.595330 207 38ft 0kts
24-Feb-18 10:10 45.589012 -122.595330 207 38ft 0kts
24-Feb-18 10:11 45.589012 -122.595330 207 38ft 0kts
24-Feb-18 10:12 45.589201 -122.595185 207 38ft 2kts
24-Feb-18 10:13 45.589564 -122.594648 293 38ft 0kts
24-Feb-18 10:14 45.589523 -122.594548 298 38ft 0kts
24-Feb-18 10:15 45.589640 -122.594854 298 38ft 7kts
24-Feb-18 10:16 45.590639 -122.597437 299 38ft 9kts
24-Feb-18 10:17 45.591087 -122.598493 311 38ft 12kts
24-Feb-18 10:18 45.592815 -122.593747 119 38ft 28kts
24-Feb-18 10:19 45.588826 -122.583613 118 38ft 19kts
24-Feb-18 10:20 45.586399 -122.577293 116 38ft 19kts
24-Feb-18 10:21 45.583623 -122.570104 116 38ft 17kts
24-Feb-18 10:22 45.582728 -122.567485 81 38ft 0kts
24-Feb-18 10:23 45.582728 -122.567485 81 38ft 0kts
24-Feb-18 10:24 45.582728 -122.567479 81 38ft 0kts
24-Feb-18 10:25 45.583886 -122.567607 296 38ft 0kts
24-Feb-18 10:26 45.587372 -122.576570 296 39ft 128kts
24-Feb-18 10:27 45.610940 -122.630408 293 2560ft 188kts
24-Feb-18 10:28 45.633597 -122.712005 298 5260ft 259kts
24-Feb-18 10:29 45.667651 -122.798137 292 8831ft 254kts
24-Feb-18 10:30 45.653237 -122.897258 237 12251ft 287kts
24-Feb-18 10:31 45.568707 -122.907160 160 14192ft 382kts
24-Feb-18 10:32 45.507164 -122.785431 109 15322ft 411kts
24-Feb-18 10:33 45.461378 -122.634913 110 17464ft 429kts
24-Feb-18 10:34 45.412878 -122.479512 110 19452ft 444kts
24-Feb-18 10:35 45.362816 -122.320368 110 21248ft 457kts
24-Feb-18 10:36 45.311080 -122.156946 110 22862ft 470kts
24-Feb-18 10:37 45.258454 -121.991492 108 24351ft 480kts
24-Feb-18 10:38 45.212357 -121.814617 104 25747ft 488kts
24-Feb-18 10:39 45.165659 -121.633296 103 27046ft 498kts
24-Feb-18 10:40 45.117698 -121.448440 103 28243ft 508kts
24-Feb-18 10:41 45.068972 -121.262123 104 29149ft 520kts
24-Feb-18 10:42 45.019755 -121.075430 105 30601ft 517kts
24-Feb-18 10:43 44.970703 -120.890727 106 31155ft 511kts
24-Feb-18 10:44 44.920641 -120.703791 106 31143ft 515kts
24-Feb-18 10:45 44.872566 -120.525589 106 31125ft 514kts
24-Feb-18 10:46 44.822627 -120.341876 107 31103ft 514kts
24-Feb-18 10:47 44.771240 -120.154290 107 31065ft 514kts
24-Feb-18 10:48 44.721607 -119.974478 107 31011ft 515kts
24-Feb-18 10:49 44.670602 -119.791067 107 31023ft 516kts
24-Feb-18 10:50 44.617667 -119.605726 108 31030ft 517kts
24-Feb-18 10:51 44.563317 -119.420339 108 31031ft 517kts
24-Feb-18 10:52 44.510261 -119.240390 109 31022ft 516kts
24-Feb-18 10:53 44.455801 -119.056991 109 31013ft 516kts
24-Feb-18 10:54 44.401529 -118.875537 110 31050ft 513kts
24-Feb-18 10:55 44.346666 -118.693381 110 31035ft 506kts
24-Feb-18 10:56 44.292465 -118.514737 111 30121ft 502kts
24-Feb-18 10:57 44.240192 -118.343597 111 28904ft 489kts
24-Feb-18 10:58 44.190081 -118.180558 112 26914ft 475kts
24-Feb-18 10:59 44.139245 -118.016273 112 24809ft 462kts
24-Feb-18 11:00 44.089391 -117.856147 112 22729ft 448kts
24-Feb-18 11:01 44.040877 -117.701265 112 20666ft 434kts
24-Feb-18 11:02 43.993536 -117.551020 113 18565ft 423kts
24-Feb-18 11:03 43.946845 -117.405363 113 16447ft 412kts
24-Feb-18 11:04 43.903241 -117.267944 113 14532ft 398kts
24-Feb-18 11:05 43.860297 -117.132630 114 13056ft 386kts
24-Feb-18 11:06 43.818824 -117.002899 117 10613ft 349kts
24-Feb-18 11:07 43.782790 -116.891680 119 9965ft 304kts
24-Feb-18 11:08 43.749461 -116.789204 118 8798ft 286kts
24-Feb-18 11:09 43.718286 -116.691832 118 7601ft 272kts
24-Feb-18 11:10 43.688524 -116.599271 117 6323ft 259kts
24-Feb-18 11:11 43.661275 -116.514623 117 5314ft 222kts
24-Feb-18 11:12 43.637565 -116.441411 118 5051ft 212kts
24-Feb-18 11:13 43.614030 -116.370947 119 5018ft 179kts
24-Feb-18 11:14 43.593751 -116.311844 119 3988ft 163kts
24-Feb-18 11:15 43.577926 -116.265668 118 3272ft 124kts
24-Feb-18 11:16 43.564701 -116.227152 116 2880ft 39kts
24-Feb-18 11:17 43.562863 -116.224396 193 2880ft 0kts
24-Feb-18 11:18 43.562393 -116.226550 299 2880ft 11kts
24-Feb-18 11:19 43.563833 -116.229039 29 2880ft 5kts
24-Feb-18 11:20 43.563902 -116.228966 41 2880ft 0kts
24-Feb-18 11:21 43.563902 -116.228966 41 2880ft 0kts
24-Feb-18 11:22 43.563902 -116.228966 41 2880ft 0kts
24-Feb-18 11:23 43.563902 -116.228966 41 2880ft 0kts
24-Feb-18 11:24 43.563902 -116.228966 41 2880ft 0kts
24-Feb-18 11:25 43.563902 -116.228966 41 2880ft 0kts
24-Feb-18 11:26 43.563902 -116.228966 41 2880ft 0kts
24-Feb-18 11:27 43.563902 -116.228966 41 2880ft 0kts
24-Feb-18 11:28 43.563902 -116.228966 41 2880ft 0kts
24-Feb-18 11:29 43.563902 -116.228966 41 2880ft 0kts
24-Feb-18 11:30 43.563902 -116.228966 41 2880ft 0kts
24-Feb-18 11:31 43.563902 -116.228966 41 2880ft 0kts

Navigation Log

Ident Type
Flight plan parsing failed, navigation log unavailable